sensor_id;sensor_type;location;lat;lon;timestamp;pressure;altitude;pressure_sealevel;temperature;humidity
10732;BME280;5417;42.686;23.244;2023-02-03T00:00:50;94504.91;;;5.49;61.63
10732;BME280;5417;42.686;23.244;2023-02-03T00:03:17;94522.06;;;5.50;61.90
10732;BME280;5417;42.686;23.244;2023-02-03T00:05:44;94513.66;;;5.32;62.09
10732;BME280;5417;42.686;23.244;2023-02-03T00:08:12;94511.91;;;5.33;62.83
10732;BME280;5417;42.686;23.244;2023-02-03T00:10:40;94517.53;;;5.39;62.80
10732;BME280;5417;42.686;23.244;2023-02-03T00:13:08;94522.63;;;5.41;63.56
10732;BME280;5417;42.686;23.244;2023-02-03T00:15:35;94521.78;;;5.26;63.32
10732;BME280;5417;42.686;23.244;2023-02-03T00:18:03;94511.84;;;5.04;63.79
10732;BME280;5417;42.686;23.244;2023-02-03T00:20:30;94528.06;;;5.06;64.84
10732;BME280;5417;42.686;23.244;2023-02-03T00:23:03;94523.66;;;5.08;64.95
10732;BME280;5417;42.686;23.244;2023-02-03T00:25:30;94510.63;;;4.96;65.40
10732;BME280;5417;42.686;23.244;2023-02-03T00:27:57;94534.94;;;5.22;65.37
10732;BME280;5417;42.686;23.244;2023-02-03T00:30:24;94521.03;;;5.24;64.38
10732;BME280;5417;42.686;23.244;2023-02-03T00:32:51;94527.13;;;5.23;65.12
10732;BME280;5417;42.686;23.244;2023-02-03T00:35:19;94533.94;;;5.24;65.11
10732;BME280;5417;42.686;23.244;2023-02-03T00:37:50;94542.78;;;5.20;65.17
10732;BME280;5417;42.686;23.244;2023-02-03T00:40:20;94547.41;;;4.99;65.51
10732;BME280;5417;42.686;23.244;2023-02-03T00:42:47;94553.22;;;5.03;65.51
10732;BME280;5417;42.686;23.244;2023-02-03T00:45:16;94545.34;;;4.90;65.22
10732;BME280;5417;42.686;23.244;2023-02-03T00:47:43;94550.25;;;4.95;66.01
10732;BME280;5417;42.686;23.244;2023-02-03T00:50:10;94548.41;;;4.97;65.60
10732;BME280;5417;42.686;23.244;2023-02-03T00:52:39;94552.34;;;4.88;66.20
10732;BME280;5417;42.686;23.244;2023-02-03T00:55:07;94541.72;;;4.79;65.74
10732;BME280;5417;42.686;23.244;2023-02-03T00:57:34;94538.97;;;4.82;66.32
10732;BME280;5417;42.686;23.244;2023-02-03T01:00:01;94547.81;;;4.78;66.37
10732;BME280;5417;42.686;23.244;2023-02-03T01:02:28;94549.47;;;4.79;65.97
10732;BME280;5417;42.686;23.244;2023-02-03T01:04:55;94565.03;;;4.77;65.61
10732;BME280;5417;42.686;23.244;2023-02-03T01:07:21;94568.03;;;4.69;66.31
10732;BME280;5417;42.686;23.244;2023-02-03T01:09:50;94561.69;;;4.59;66.51
10732;BME280;5417;42.686;23.244;2023-02-03T01:12:17;94568.16;;;4.66;66.00
10732;BME280;5417;42.686;23.244;2023-02-03T01:14:44;94562.34;;;4.63;65.94
10732;BME280;5417;42.686;23.244;2023-02-03T01:17:10;94563.09;;;4.65;66.11
10732;BME280;5417;42.686;23.244;2023-02-03T01:19:37;94544.56;;;4.58;66.83
10732;BME280;5417;42.686;23.244;2023-02-03T01:22:04;94561.88;;;4.72;66.67
10732;BME280;5417;42.686;23.244;2023-02-03T01:24:31;94573.50;;;4.79;65.56
10732;BME280;5417;42.686;23.244;2023-02-03T01:26:59;94563.44;;;4.74;66.24
10732;BME280;5417;42.686;23.244;2023-02-03T01:29:26;94567.06;;;4.86;65.40
10732;BME280;5417;42.686;23.244;2023-02-03T01:31:53;94571.34;;;4.71;64.67
10732;BME280;5417;42.686;23.244;2023-02-03T01:34:20;94568.16;;;4.66;65.33
10732;BME280;5417;42.686;23.244;2023-02-03T01:36:47;94572.41;;;4.67;65.18
10732;BME280;5417;42.686;23.244;2023-02-03T01:39:14;94559.78;;;4.63;65.54
10732;BME280;5417;42.686;23.244;2023-02-03T01:41:41;94566.41;;;4.67;65.38
10732;BME280;5417;42.686;23.244;2023-02-03T01:47:24;94572.19;;;4.56;64.96
10732;BME280;5417;42.686;23.244;2023-02-03T01:49:56;94577.75;;;4.49;65.07
10732;BME280;5417;42.686;23.244;2023-02-03T01:52:26;94577.84;;;4.47;66.04
10732;BME280;5417;42.686;23.244;2023-02-03T01:54:56;94573.53;;;4.48;65.56
10732;BME280;5417;42.686;23.244;2023-02-03T01:57:28;94582.75;;;4.52;66.04
10732;BME280;5417;42.686;23.244;2023-02-03T01:59:57;94577.84;;;4.47;65.36
10732;BME280;5417;42.686;23.244;2023-02-03T02:02:28;94577.09;;;4.45;65.14
10732;BME280;5417;42.686;23.244;2023-02-03T02:04:59;94576.69;;;4.37;66.18
10732;BME280;5417;42.686;23.244;2023-02-03T02:07:29;94578.69;;;4.48;65.56
10732;BME280;5417;42.686;23.244;2023-02-03T02:09:58;94570.53;;;4.55;65.66
10732;BME280;5417;42.686;23.244;2023-02-03T02:12:25;94589.72;;;4.50;64.99
10732;BME280;5417;42.686;23.244;2023-02-03T02:14:52;94593.13;;;4.50;66.03
10732;BME280;5417;42.686;23.244;2023-02-03T02:17:40;94587.47;;;4.59;65.15
10732;BME280;5417;42.686;23.244;2023-02-03T02:20:28;94593.38;;;4.61;64.34
10732;BME280;5417;42.686;23.244;2023-02-03T02:23:32;94589.22;;;4.59;65.32
10732;BME280;5417;42.686;23.244;2023-02-03T02:32:09;94600.69;;;4.53;65.45
10732;BME280;5417;42.686;23.244;2023-02-03T02:34:50;94607.25;;;4.59;64.45
10732;BME280;5417;42.686;23.244;2023-02-03T02:37:27;94593.47;;;4.60;64.51
10732;BME280;5417;42.686;23.244;2023-02-03T02:40:03;94593.28;;;4.63;64.20
10732;BME280;5417;42.686;23.244;2023-02-03T02:42:37;94585.97;;;4.55;64.08
10732;BME280;5417;42.686;23.244;2023-02-03T02:45:10;94593.06;;;4.52;63.19
10732;BME280;5417;42.686;23.244;2023-02-03T02:47:41;94592.31;;;4.50;63.71
10732;BME280;5417;42.686;23.244;2023-02-03T02:50:12;94592.38;;;4.48;65.03
10732;BME280;5417;42.686;23.244;2023-02-03T02:52:43;94600.38;;;4.43;64.08
10732;BME280;5417;42.686;23.244;2023-02-03T02:55:17;94606.94;;;4.18;63.74
10732;BME280;5417;42.686;23.244;2023-02-03T02:57:49;94623.84;;;4.06;64.36
10732;BME280;5417;42.686;23.244;2023-02-03T03:00:17;94614.69;;;4.00;65.12
10732;BME280;5417;42.686;23.244;2023-02-03T03:02:45;94627.25;;;4.06;64.10
10732;BME280;5417;42.686;23.244;2023-02-03T03:05:12;94628.50;;;4.15;63.40
10732;BME280;5417;42.686;23.244;2023-02-03T03:07:44;94632.25;;;4.09;63.25
10732;BME280;5417;42.686;23.244;2023-02-03T03:10:15;94627.34;;;4.05;63.21
10732;BME280;5417;42.686;23.244;2023-02-03T03:12:49;94638.78;;;3.99;63.62
10732;BME280;5417;42.686;23.244;2023-02-03T03:15:21;94634.47;;;4.00;63.83
10732;BME280;5417;42.686;23.244;2023-02-03T03:17:53;94632.16;;;4.11;62.43
10732;BME280;5417;42.686;23.244;2023-02-03T03:20:24;94643.97;;;4.15;62.41
10732;BME280;5417;42.686;23.244;2023-02-03T03:22:56;94658.75;;;4.11;63.00
10732;BME280;5417;42.686;23.244;2023-02-03T03:25:27;94655.06;;;4.00;62.62
10732;BME280;5417;42.686;23.244;2023-02-03T03:27:58;94649.25;;;3.96;62.56
10732;BME280;5417;42.686;23.244;2023-02-03T03:30:29;94647.19;;;4.03;62.75
10732;BME280;5417;42.686;23.244;2023-02-03T03:33:00;94655.50;;;4.08;61.94
10732;BME280;5417;42.686;23.244;2023-02-03T03:35:30;94654.88;;;3.87;62.83
10732;BME280;5417;42.686;23.244;2023-02-03T03:38:06;94644.06;;;3.80;63.48
10732;BME280;5417;42.686;23.244;2023-02-03T03:40:38;94649.59;;;3.73;63.01
10732;BME280;5417;42.686;23.244;2023-02-03T03:43:10;94647.09;;;3.71;63.72
10732;BME280;5417;42.686;23.244;2023-02-03T03:45:43;94644.53;;;3.71;63.55
10732;BME280;5417;42.686;23.244;2023-02-03T03:48:18;94643.75;;;3.87;62.93
10732;BME280;5417;42.686;23.244;2023-02-03T03:50:49;94638.59;;;3.87;62.97
10732;BME280;5417;42.686;23.244;2023-02-03T03:53:18;94639.69;;;3.65;62.65
10732;BME280;5417;42.686;23.244;2023-02-03T03:55:50;94641.66;;;3.43;64.42
10732;BME280;5417;42.686;23.244;2023-02-03T03:58:21;94645.91;;;3.27;64.87
10732;BME280;5417;42.686;23.244;2023-02-03T04:04:10;94648.09;;;3.34;63.96
10732;BME280;5417;42.686;23.244;2023-02-03T04:06:40;94626.25;;;3.26;64.70
10732;BME280;5417;42.686;23.244;2023-02-03T04:09:07;94640.75;;;3.27;64.42
10732;BME280;5417;42.686;23.244;2023-02-03T04:11:34;94636.97;;;3.34;64.51
10732;BME280;5417;42.686;23.244;2023-02-03T04:14:18;94637.81;;;3.34;64.78
10732;BME280;5417;42.686;23.244;2023-02-03T04:16:45;94651.81;;;3.46;64.22
10732;BME280;5417;42.686;23.244;2023-02-03T04:19:14;94655.38;;;3.43;63.07
10732;BME280;5417;42.686;23.244;2023-02-03T04:21:41;94662.63;;;3.35;64.64
10732;BME280;5417;42.686;23.244;2023-02-03T04:24:25;94669.81;;;3.29;64.02
10732;BME280;5417;42.686;23.244;2023-02-03T04:26:52;94672.47;;;3.27;64.69
10732;BME280;5417;42.686;23.244;2023-02-03T04:29:19;94674.81;;;3.32;64.71
10732;BME280;5417;42.686;23.244;2023-02-03T04:31:46;94672.00;;;3.36;64.36
10732;BME280;5417;42.686;23.244;2023-02-03T04:34:14;94673.13;;;3.48;64.29
10732;BME280;5417;42.686;23.244;2023-02-03T04:36:41;94668.91;;;3.47;64.19
10732;BME280;5417;42.686;23.244;2023-02-03T04:39:08;94676.25;;;3.37;64.15
10732;BME280;5417;42.686;23.244;2023-02-03T04:41:35;94680.25;;;3.43;63.74
10732;BME280;5417;42.686;23.244;2023-02-03T04:44:02;94677.69;;;3.43;64.04
10732;BME280;5417;42.686;23.244;2023-02-03T04:46:29;94687.53;;;3.35;64.91
10732;BME280;5417;42.686;23.244;2023-02-03T04:48:56;94677.09;;;3.38;65.00
10732;BME280;5417;42.686;23.244;2023-02-03T04:51:24;94681.47;;;3.36;65.03
10732;BME280;5417;42.686;23.244;2023-02-03T04:53:51;94686.31;;;3.42;64.44
10732;BME280;5417;42.686;23.244;2023-02-03T04:56:18;94688.28;;;3.37;64.75
10732;BME280;5417;42.686;23.244;2023-02-03T04:58:45;94689.72;;;3.25;64.77
10732;BME280;5417;42.686;23.244;2023-02-03T05:01:12;94699.09;;;3.26;65.61
10732;BME280;5417;42.686;23.244;2023-02-03T05:03:39;94704.00;;;3.31;64.99
10732;BME280;5417;42.686;23.244;2023-02-03T05:06:06;94703.19;;;3.30;65.09
10732;BME280;5417;42.686;23.244;2023-02-03T05:08:35;94689.19;;;3.19;65.31
10732;BME280;5417;42.686;23.244;2023-02-03T05:11:02;94706.81;;;3.26;64.82
10732;BME280;5417;42.686;23.244;2023-02-03T05:13:29;94700.94;;;3.05;65.81
10732;BME280;5417;42.686;23.244;2023-02-03T05:15:56;94707.75;;;3.06;65.74
10732;BME280;5417;42.686;23.244;2023-02-03T05:18:22;94709.53;;;3.04;65.47
10732;BME280;5417;42.686;23.244;2023-02-03T05:20:49;94716.06;;;3.11;65.98
10732;BME280;5417;42.686;23.244;2023-02-03T05:23:17;94729.81;;;3.10;65.76
10732;BME280;5417;42.686;23.244;2023-02-03T05:25:45;94731.84;;;3.23;66.20
10732;BME280;5417;42.686;23.244;2023-02-03T05:28:12;94731.41;;;3.32;65.10
10732;BME280;5417;42.686;23.244;2023-02-03T05:30:39;94739.88;;;3.34;65.05
10732;BME280;5417;42.686;23.244;2023-02-03T05:33:06;94752.22;;;3.44;64.67
10732;BME280;5417;42.686;23.244;2023-02-03T05:35:34;94744.59;;;3.60;64.83
10732;BME280;5417;42.686;23.244;2023-02-03T05:38:01;94752.47;;;3.57;64.43
10732;BME280;5417;42.686;23.244;2023-02-03T05:40:29;94746.25;;;3.61;64.18
10732;BME280;5417;42.686;23.244;2023-02-03T05:43:15;94751.28;;;3.64;63.34
10732;BME280;5417;42.686;23.244;2023-02-03T05:45:42;94748.28;;;3.55;64.00
10732;BME280;5417;42.686;23.244;2023-02-03T05:48:09;94749.72;;;3.60;64.38
10732;BME280;5417;42.686;23.244;2023-02-03T05:50:37;94727.63;;;3.39;63.62
10732;BME280;5417;42.686;23.244;2023-02-03T05:53:05;94754.28;;;3.55;63.93
10732;BME280;5417;42.686;23.244;2023-02-03T05:55:33;94752.84;;;3.49;64.36
10732;BME280;5417;42.686;23.244;2023-02-03T05:58:01;94759.47;;;3.36;63.85
10732;BME280;5417;42.686;23.244;2023-02-03T06:00:29;94760.00;;;3.43;64.20
10732;BME280;5417;42.686;23.244;2023-02-03T06:02:58;94767.28;;;3.52;64.16
10732;BME280;5417;42.686;23.244;2023-02-03T06:05:27;94765.63;;;3.51;64.08
10732;BME280;5417;42.686;23.244;2023-02-03T06:07:54;94765.28;;;3.76;64.09
10732;BME280;5417;42.686;23.244;2023-02-03T06:10:22;94752.94;;;4.66;61.25
10732;BME280;5417;42.686;23.244;2023-02-03T06:12:49;94741.44;;;5.36;58.96
10732;BME280;5417;42.686;23.244;2023-02-03T06:15:16;94758.13;;;5.60;56.92
10732;BME280;5417;42.686;23.244;2023-02-03T06:17:46;94754.91;;;6.17;54.84
10732;BME280;5417;42.686;23.244;2023-02-03T06:20:15;94752.97;;;7.20;54.80
10732;BME280;5417;42.686;23.244;2023-02-03T06:22:43;94760.16;;;8.22;51.42
10732;BME280;5417;42.686;23.244;2023-02-03T06:25:10;94756.06;;;8.71;48.46
10732;BME280;5417;42.686;23.244;2023-02-03T06:27:38;94752.63;;;8.70;47.43
10732;BME280;5417;42.686;23.244;2023-02-03T06:30:06;94753.78;;;9.28;46.59
10732;BME280;5417;42.686;23.244;2023-02-03T06:32:33;94753.75;;;10.12;45.70
10732;BME280;5417;42.686;23.244;2023-02-03T06:35:02;94761.25;;;10.63;43.65
10732;BME280;5417;42.686;23.244;2023-02-03T06:37:29;94761.38;;;11.29;42.89
10732;BME280;5417;42.686;23.244;2023-02-03T06:39:56;94757.03;;;12.16;41.03
10732;BME280;5417;42.686;23.244;2023-02-03T06:42:23;94762.56;;;11.90;39.14
10732;BME280;5417;42.686;23.244;2023-02-03T06:44:50;94762.78;;;11.44;39.97
10732;BME280;5417;42.686;23.244;2023-02-03T06:47:18;94767.78;;;11.14;41.21
10732;BME280;5417;42.686;23.244;2023-02-03T06:49:45;94779.00;;;10.92;41.31
10732;BME280;5417;42.686;23.244;2023-02-03T06:52:13;94770.47;;;10.79;41.17
10732;BME280;5417;42.686;23.244;2023-02-03T06:54:41;94778.91;;;10.93;42.25
10732;BME280;5417;42.686;23.244;2023-02-03T06:57:08;94790.84;;;10.85;42.78
10732;BME280;5417;42.686;23.244;2023-02-03T06:59:35;94789.41;;;10.69;41.56
10732;BME280;5417;42.686;23.244;2023-02-03T07:02:02;94789.34;;;11.16;42.63
10732;BME280;5417;42.686;23.244;2023-02-03T07:04:29;94793.94;;;11.23;40.27
10732;BME280;5417;42.686;23.244;2023-02-03T07:06:56;94792.06;;;11.48;41.28
10732;BME280;5417;42.686;23.244;2023-02-03T07:09:25;94795.53;;;11.91;40.21
10732;BME280;5417;42.686;23.244;2023-02-03T07:11:52;94795.22;;;12.17;39.66
10732;BME280;5417;42.686;23.244;2023-02-03T07:14:19;94798.84;;;12.05;38.39
10732;BME280;5417;42.686;23.244;2023-02-03T07:16:46;94794.97;;;12.20;38.51
10732;BME280;5417;42.686;23.244;2023-02-03T07:19:13;94799.47;;;11.75;39.38
10732;BME280;5417;42.686;23.244;2023-02-03T07:21:40;94802.34;;;11.60;38.95
10732;BME280;5417;42.686;23.244;2023-02-03T07:24:07;94802.56;;;10.79;40.40
10732;BME280;5417;42.686;23.244;2023-02-03T07:26:35;94809.06;;;10.38;41.26
10732;BME280;5417;42.686;23.244;2023-02-03T07:29:03;94819.88;;;9.24;43.51
10732;BME280;5417;42.686;23.244;2023-02-03T07:31:30;94818.84;;;8.76;44.17
10732;BME280;5417;42.686;23.244;2023-02-03T07:33:57;94828.16;;;8.40;46.67
10732;BME280;5417;42.686;23.244;2023-02-03T07:36:27;94830.25;;;8.21;46.25
10732;BME280;5417;42.686;23.244;2023-02-03T07:38:54;94832.53;;;8.26;45.90
10732;BME280;5417;42.686;23.244;2023-02-03T07:41:21;94831.91;;;8.22;47.56
10732;BME280;5417;42.686;23.244;2023-02-03T07:43:50;94834.69;;;8.06;47.77
10732;BME280;5417;42.686;23.244;2023-02-03T07:46:17;94836.16;;;8.23;47.67
10732;BME280;5417;42.686;23.244;2023-02-03T07:48:44;94832.72;;;8.37;46.15
10732;BME280;5417;42.686;23.244;2023-02-03T07:51:11;94836.06;;;8.51;47.07
10732;BME280;5417;42.686;23.244;2023-02-03T07:53:38;94825.50;;;8.80;46.39
10732;BME280;5417;42.686;23.244;2023-02-03T07:56:05;94840.47;;;9.02;44.86
10732;BME280;5417;42.686;23.244;2023-02-03T07:58:32;94842.75;;;9.06;46.68
10732;BME280;5417;42.686;23.244;2023-02-03T08:01:01;94850.03;;;9.01;44.97
10732;BME280;5417;42.686;23.244;2023-02-03T08:03:35;94823.31;;;8.74;46.14
10732;BME280;5417;42.686;23.244;2023-02-03T08:06:02;94840.97;;;9.20;46.20
10732;BME280;5417;42.686;23.244;2023-02-03T08:08:30;94855.19;;;9.14;44.99
10732;BME280;5417;42.686;23.244;2023-02-03T08:10:57;94825.09;;;8.73;45.46
10732;BME280;5417;42.686;23.244;2023-02-03T08:13:24;94836.38;;;8.47;46.88
10732;BME280;5417;42.686;23.244;2023-02-03T08:15:51;94838.88;;;8.48;47.60
10732;BME280;5417;42.686;23.244;2023-02-03T08:18:20;94836.59;;;8.82;46.67
10732;BME280;5417;42.686;23.244;2023-02-03T08:20:48;94828.50;;;8.48;46.80
10732;BME280;5417;42.686;23.244;2023-02-03T08:23:15;94826.81;;;7.81;47.82
10732;BME280;5417;42.686;23.244;2023-02-03T08:25:42;94826.97;;;8.32;48.50
10732;BME280;5417;42.686;23.244;2023-02-03T08:28:09;94826.44;;;8.79;47.19
10732;BME280;5417;42.686;23.244;2023-02-03T08:30:37;94826.84;;;9.11;44.51
10732;BME280;5417;42.686;23.244;2023-02-03T08:33:04;94823.59;;;9.45;43.83
10732;BME280;5417;42.686;23.244;2023-02-03T08:35:32;94838.44;;;9.31;44.27
10732;BME280;5417;42.686;23.244;2023-02-03T08:38:00;94841.78;;;9.20;44.89
10732;BME280;5417;42.686;23.244;2023-02-03T08:40:27;94847.59;;;9.24;45.34
10732;BME280;5417;42.686;23.244;2023-02-03T08:42:54;94854.06;;;9.05;44.76
10732;BME280;5417;42.686;23.244;2023-02-03T08:45:21;94845.59;;;8.38;45.48
10732;BME280;5417;42.686;23.244;2023-02-03T08:47:48;94855.28;;;7.95;47.26
10732;BME280;5417;42.686;23.244;2023-02-03T08:50:15;94836.88;;;8.39;48.11
10732;BME280;5417;42.686;23.244;2023-02-03T08:52:45;94843.88;;;8.77;47.09
10732;BME280;5417;42.686;23.244;2023-02-03T08:55:13;94866.38;;;8.64;46.22
10732;BME280;5417;42.686;23.244;2023-02-03T08:57:40;94858.38;;;8.41;47.06
10732;BME280;5417;42.686;23.244;2023-02-03T09:00:08;94868.13;;;8.23;47.33
10732;BME280;5417;42.686;23.244;2023-02-03T09:02:36;94860.00;;;8.15;48.71
10732;BME280;5417;42.686;23.244;2023-02-03T09:05:03;94871.75;;;7.94;49.47
10732;BME280;5417;42.686;23.244;2023-02-03T09:07:30;94872.13;;;7.47;49.50
10732;BME280;5417;42.686;23.244;2023-02-03T09:09:58;94870.00;;;7.53;49.79
10732;BME280;5417;42.686;23.244;2023-02-03T09:12:25;94857.72;;;7.84;49.85
10732;BME280;5417;42.686;23.244;2023-02-03T09:14:52;94864.31;;;8.02;49.21
10732;BME280;5417;42.686;23.244;2023-02-03T09:17:19;94857.81;;;8.09;48.30
10732;BME280;5417;42.686;23.244;2023-02-03T09:19:46;94859.59;;;8.21;48.49
10732;BME280;5417;42.686;23.244;2023-02-03T09:22:13;94866.63;;;8.07;48.14
10732;BME280;5417;42.686;23.244;2023-02-03T09:24:40;94869.22;;;8.07;48.65
10732;BME280;5417;42.686;23.244;2023-02-03T09:27:09;94864.78;;;8.36;47.93
10732;BME280;5417;42.686;23.244;2023-02-03T09:29:36;94855.88;;;8.52;47.42
10732;BME280;5417;42.686;23.244;2023-02-03T09:32:03;94858.31;;;8.02;47.35
10732;BME280;5417;42.686;23.244;2023-02-03T09:34:33;94860.31;;;8.11;48.64
10732;BME280;5417;42.686;23.244;2023-02-03T09:37:00;94865.78;;;8.06;48.17
10732;BME280;5417;42.686;23.244;2023-02-03T09:39:27;94865.66;;;7.95;48.24
10732;BME280;5417;42.686;23.244;2023-02-03T09:42:18;94856.75;;;7.58;48.82
10732;BME280;5417;42.686;23.244;2023-02-03T09:44:57;94853.59;;;7.67;48.01
10732;BME280;5417;42.686;23.244;2023-02-03T09:47:30;94863.25;;;7.51;49.29
10732;BME280;5417;42.686;23.244;2023-02-03T09:50:00;94848.19;;;7.43;49.07
10732;BME280;5417;42.686;23.244;2023-02-03T09:52:31;94853.94;;;7.34;47.34
10732;BME280;5417;42.686;23.244;2023-02-03T09:55:02;94864.00;;;7.24;47.41
10732;BME280;5417;42.686;23.244;2023-02-03T09:57:36;94858.28;;;7.34;48.71
10732;BME280;5417;42.686;23.244;2023-02-03T10:00:15;94845.63;;;7.29;49.39
10732;BME280;5417;42.686;23.244;2023-02-03T10:02:54;94848.09;;;7.45;49.77
10732;BME280;5417;42.686;23.244;2023-02-03T10:05:29;94850.94;;;7.26;48.87
10732;BME280;5417;42.686;23.244;2023-02-03T10:08:06;94852.63;;;7.41;48.35
10732;BME280;5417;42.686;23.244;2023-02-03T10:10:41;94848.88;;;7.59;48.69
10732;BME280;5417;42.686;23.244;2023-02-03T10:13:19;94848.28;;;7.83;50.10
10732;BME280;5417;42.686;23.244;2023-02-03T10:15:57;94840.91;;;7.63;49.89
10732;BME280;5417;42.686;23.244;2023-02-03T10:18:29;94825.56;;;7.59;49.72
10732;BME280;5417;42.686;23.244;2023-02-03T10:21:02;94831.13;;;7.53;48.17
10732;BME280;5417;42.686;23.244;2023-02-03T10:23:32;94838.28;;;7.77;48.33
10732;BME280;5417;42.686;23.244;2023-02-03T10:26:02;94826.81;;;8.08;48.52
10732;BME280;5417;42.686;23.244;2023-02-03T10:28:36;94828.91;;;8.55;47.82
10732;BME280;5417;42.686;23.244;2023-02-03T10:31:13;94817.59;;;8.69;46.69
10732;BME280;5417;42.686;23.244;2023-02-03T10:33:42;94817.81;;;8.78;45.01
10732;BME280;5417;42.686;23.244;2023-02-03T10:36:15;94815.84;;;8.82;44.53
10732;BME280;5417;42.686;23.244;2023-02-03T10:38:52;94805.97;;;8.49;44.16
10732;BME280;5417;42.686;23.244;2023-02-03T10:41:23;94804.44;;;8.32;44.69
10732;BME280;5417;42.686;23.244;2023-02-03T10:43:52;94812.63;;;8.26;43.66
10732;BME280;5417;42.686;23.244;2023-02-03T10:46:26;94801.97;;;7.91;43.72
10732;BME280;5417;42.686;23.244;2023-02-03T10:48:54;94824.69;;;7.73;43.53
10732;BME280;5417;42.686;23.244;2023-02-03T10:51:23;94824.69;;;7.46;44.06
10732;BME280;5417;42.686;23.244;2023-02-03T10:53:51;94826.00;;;7.25;43.46
10732;BME280;5417;42.686;23.244;2023-02-03T10:56:21;94821.47;;;7.14;44.03
10732;BME280;5417;42.686;23.244;2023-02-03T10:58:50;94823.03;;;7.17;44.67
10732;BME280;5417;42.686;23.244;2023-02-03T11:01:22;94816.00;;;7.33;44.24
10732;BME280;5417;42.686;23.244;2023-02-03T11:03:56;94809.44;;;7.69;44.10
10732;BME280;5417;42.686;23.244;2023-02-03T11:06:24;94810.78;;;7.88;43.01
10732;BME280;5417;42.686;23.244;2023-02-03T11:08:51;94802.72;;;7.93;44.85
10732;BME280;5417;42.686;23.244;2023-02-03T11:11:24;94805.50;;;7.90;44.42
10732;BME280;5417;42.686;23.244;2023-02-03T11:13:53;94814.72;;;7.67;44.56
10732;BME280;5417;42.686;23.244;2023-02-03T11:16:22;94811.63;;;7.75;44.03
10732;BME280;5417;42.686;23.244;2023-02-03T11:19:00;94812.56;;;7.74;44.11
10732;BME280;5417;42.686;23.244;2023-02-03T11:21:30;94807.78;;;7.68;43.60
10732;BME280;5417;42.686;23.244;2023-02-03T11:24:05;94801.38;;;7.73;43.24
10732;BME280;5417;42.686;23.244;2023-02-03T11:26:34;94792.97;;;7.70;43.64
10732;BME280;5417;42.686;23.244;2023-02-03T11:29:04;94784.31;;;7.56;43.99
10732;BME280;5417;42.686;23.244;2023-02-03T11:31:35;94776.44;;;7.31;42.91
10732;BME280;5417;42.686;23.244;2023-02-03T11:34:04;94780.69;;;7.18;43.32
10732;BME280;5417;42.686;23.244;2023-02-03T11:36:33;94775.31;;;7.21;43.25
10732;BME280;5417;42.686;23.244;2023-02-03T11:39:16;94776.06;;;7.23;42.84
10732;BME280;5417;42.686;23.244;2023-02-03T11:41:43;94762.47;;;7.34;43.83
10732;BME280;5417;42.686;23.244;2023-02-03T11:44:16;94761.31;;;7.52;44.80
10732;BME280;5417;42.686;23.244;2023-02-03T11:46:46;94768.38;;;7.63;44.13
10732;BME280;5417;42.686;23.244;2023-02-03T11:49:43;94768.78;;;7.83;42.59
10732;BME280;5417;42.686;23.244;2023-02-03T11:52:32;94763.50;;;7.85;41.93
10732;BME280;5417;42.686;23.244;2023-02-03T11:55:07;94759.38;;;7.95;41.16
10732;BME280;5417;42.686;23.244;2023-02-03T11:57:47;94755.28;;;7.78;42.16
10732;BME280;5417;42.686;23.244;2023-02-03T12:00:29;94754.94;;;7.43;41.83
10732;BME280;5417;42.686;23.244;2023-02-03T12:09:07;94743.50;;;7.60;40.81
10732;BME280;5417;42.686;23.244;2023-02-03T12:11:53;94737.66;;;7.44;39.94
10732;BME280;5417;42.686;23.244;2023-02-03T12:14:42;94764.53;;;7.55;42.18
10732;BME280;5417;42.686;23.244;2023-02-03T12:17:24;94761.44;;;7.63;40.63
10732;BME280;5417;42.686;23.244;2023-02-03T12:20:17;94759.09;;;7.73;40.35
10732;BME280;5417;42.686;23.244;2023-02-03T12:22:56;94742.22;;;7.80;38.70
10732;BME280;5417;42.686;23.244;2023-02-03T12:25:35;94753.44;;;7.80;38.66
10732;BME280;5417;42.686;23.244;2023-02-03T12:28:16;94753.25;;;7.56;39.56
10732;BME280;5417;42.686;23.244;2023-02-03T12:30:51;94744.66;;;7.29;39.34
10732;BME280;5417;42.686;23.244;2023-02-03T12:33:22;94747.00;;;7.46;39.51
10732;BME280;5417;42.686;23.244;2023-02-03T12:35:52;94741.38;;;7.25;40.31
10732;BME280;5417;42.686;23.244;2023-02-03T12:38:28;94740.84;;;7.20;40.28
10732;BME280;5417;42.686;23.244;2023-02-03T12:40:59;94747.16;;;7.16;40.81
10732;BME280;5417;42.686;23.244;2023-02-03T12:43:32;94745.50;;;7.01;40.47
10732;BME280;5417;42.686;23.244;2023-02-03T12:46:04;94752.28;;;6.89;41.00
10732;BME280;5417;42.686;23.244;2023-02-03T12:48:42;94753.22;;;6.88;40.92
10732;BME280;5417;42.686;23.244;2023-02-03T12:51:13;94763.28;;;6.93;41.64
10732;BME280;5417;42.686;23.244;2023-02-03T12:53:47;94746.50;;;7.13;42.68
10732;BME280;5417;42.686;23.244;2023-02-03T12:56:21;94745.38;;;7.31;42.32
10732;BME280;5417;42.686;23.244;2023-02-03T12:58:54;94744.16;;;7.37;42.60
10732;BME280;5417;42.686;23.244;2023-02-03T13:01:23;94731.72;;;7.15;43.03
10732;BME280;5417;42.686;23.244;2023-02-03T13:03:59;94749.75;;;7.02;42.88
10732;BME280;5417;42.686;23.244;2023-02-03T13:06:35;94719.09;;;6.68;43.40
10732;BME280;5417;42.686;23.244;2023-02-03T13:09:21;94739.25;;;6.62;44.45
10732;BME280;5417;42.686;23.244;2023-02-03T13:11:55;94731.13;;;6.26;45.03
10732;BME280;5417;42.686;23.244;2023-02-03T13:14:28;94736.84;;;6.31;46.35
10732;BME280;5417;42.686;23.244;2023-02-03T13:17:00;94741.38;;;6.42;46.08
10732;BME280;5417;42.686;23.244;2023-02-03T13:19:37;94746.31;;;6.16;46.43
10732;BME280;5417;42.686;23.244;2023-02-03T13:22:10;94742.53;;;6.08;46.18
10732;BME280;5417;42.686;23.244;2023-02-03T13:24:40;94743.66;;;6.18;46.68
10732;BME280;5417;42.686;23.244;2023-02-03T13:27:34;94746.28;;;6.32;46.68
10732;BME280;5417;42.686;23.244;2023-02-03T13:30:28;94734.53;;;6.55;45.60
10732;BME280;5417;42.686;23.244;2023-02-03T13:33:24;94736.41;;;6.81;45.53
10732;BME280;5417;42.686;23.244;2023-02-03T13:36:04;94732.59;;;6.87;45.45
10732;BME280;5417;42.686;23.244;2023-02-03T13:38:50;94731.13;;;6.83;44.74
10732;BME280;5417;42.686;23.244;2023-02-03T13:41:30;94724.09;;;6.71;45.14
10732;BME280;5417;42.686;23.244;2023-02-03T13:44:02;94737.69;;;6.46;46.30
10732;BME280;5417;42.686;23.244;2023-02-03T13:46:32;94732.59;;;6.30;46.08